sensor_id;sensor_type;location;lat;lon;timestamp;temperature;humidity
23100;DHT22;53791;50.696;4.396;2023-04-25T00:01:37;9.00;99.90
23100;DHT22;53791;50.696;4.396;2023-04-25T00:04:04;9.00;99.90
23100;DHT22;53791;50.696;4.396;2023-04-25T00:06:34;9.00;99.90
23100;DHT22;53791;50.696;4.396;2023-04-25T00:09:04;9.00;99.90
23100;DHT22;53791;50.696;4.396;2023-04-25T00:11:33;8.90;99.90
23100;DHT22;53791;50.696;4.396;2023-04-25T00:14:01;8.90;99.90
23100;DHT22;53791;50.696;4.396;2023-04-25T00:16:29;8.90;99.90
23100;DHT22;53791;50.696;4.396;2023-04-25T00:18:59;9.00;99.90
23100;DHT22;53791;50.696;4.396;2023-04-25T00:21:27;9.10;99.90
23100;DHT22;53791;50.696;4.396;2023-04-25T00:23:56;9.10;99.90
23100;DHT22;53791;50.696;4.396;2023-04-25T00:26:23;9.00;99.90
23100;DHT22;53791;50.696;4.396;2023-04-25T00:28:51;9.00;99.90
23100;DHT22;53791;50.696;4.396;2023-04-25T00:31:19;8.90;99.90
23100;DHT22;53791;50.696;4.396;2023-04-25T00:33:47;8.90;99.90
23100;DHT22;53791;50.696;4.396;2023-04-25T00:36:14;8.90;99.90
23100;DHT22;53791;50.696;4.396;2023-04-25T00:38:43;9.00;99.90
23100;DHT22;53791;50.696;4.396;2023-04-25T00:41:11;9.00;99.90
23100;DHT22;53791;50.696;4.396;2023-04-25T00:43:40;9.00;99.90
23100;DHT22;53791;50.696;4.396;2023-04-25T00:46:07;9.00;99.90
23100;DHT22;53791;50.696;4.396;2023-04-25T00:48:35;9.00;99.90
23100;DHT22;53791;50.696;4.396;2023-04-25T00:51:02;9.00;99.90
23100;DHT22;53791;50.696;4.396;2023-04-25T00:53:31;8.90;99.90
23100;DHT22;53791;50.696;4.396;2023-04-25T00:55:59;8.90;99.90
23100;DHT22;53791;50.696;4.396;2023-04-25T00:58:26;9.00;99.90
23100;DHT22;53791;50.696;4.396;2023-04-25T01:00:55;9.00;99.90
23100;DHT22;53791;50.696;4.396;2023-04-25T01:03:24;9.00;99.90
23100;DHT22;53791;50.696;4.396;2023-04-25T01:05:52;9.10;99.90
23100;DHT22;53791;50.696;4.396;2023-04-25T01:08:23;9.00;99.90
23100;DHT22;53791;50.696;4.396;2023-04-25T01:10:52;9.00;99.90
23100;DHT22;53791;50.696;4.396;2023-04-25T01:13:23;9.00;99.90
23100;DHT22;53791;50.696;4.396;2023-04-25T01:15:50;9.00;99.90
23100;DHT22;53791;50.696;4.396;2023-04-25T01:18:18;9.00;99.90
23100;DHT22;53791;50.696;4.396;2023-04-25T01:20:47;8.90;99.90
23100;DHT22;53791;50.696;4.396;2023-04-25T01:23:16;8.80;99.90
23100;DHT22;53791;50.696;4.396;2023-04-25T01:25:44;8.80;99.90
23100;DHT22;53791;50.696;4.396;2023-04-25T01:28:12;8.70;99.90
23100;DHT22;53791;50.696;4.396;2023-04-25T01:30:41;8.70;99.90
23100;DHT22;53791;50.696;4.396;2023-04-25T01:33:09;8.60;99.90
23100;DHT22;53791;50.696;4.396;2023-04-25T01:35:36;8.70;99.90
23100;DHT22;53791;50.696;4.396;2023-04-25T01:38:04;8.60;99.90
23100;DHT22;53791;50.696;4.396;2023-04-25T01:40:32;8.50;99.90
23100;DHT22;53791;50.696;4.396;2023-04-25T01:43:01;8.50;99.90
23100;DHT22;53791;50.696;4.396;2023-04-25T01:45:28;8.50;99.90
23100;DHT22;53791;50.696;4.396;2023-04-25T01:47:56;8.40;99.90
23100;DHT22;53791;50.696;4.396;2023-04-25T01:50:25;8.40;99.90
23100;DHT22;53791;50.696;4.396;2023-04-25T01:52:54;8.50;99.90
23100;DHT22;53791;50.696;4.396;2023-04-25T01:55:22;8.50;99.90
23100;DHT22;53791;50.696;4.396;2023-04-25T01:57:50;8.50;99.90
23100;DHT22;53791;50.696;4.396;2023-04-25T02:00:17;8.50;99.90
23100;DHT22;53791;50.696;4.396;2023-04-25T02:02:45;8.50;99.90
23100;DHT22;53791;50.696;4.396;2023-04-25T02:05:12;8.50;99.90
23100;DHT22;53791;50.696;4.396;2023-04-25T02:07:40;8.60;99.90
23100;DHT22;53791;50.696;4.396;2023-04-25T02:10:08;8.60;99.90
23100;DHT22;53791;50.696;4.396;2023-04-25T02:12:36;8.50;99.90
23100;DHT22;53791;50.696;4.396;2023-04-25T02:15:04;8.50;99.90
23100;DHT22;53791;50.696;4.396;2023-04-25T02:17:32;8.50;99.90
23100;DHT22;53791;50.696;4.396;2023-04-25T02:19:59;8.60;99.90
23100;DHT22;53791;50.696;4.396;2023-04-25T02:22:27;8.60;99.90
23100;DHT22;53791;50.696;4.396;2023-04-25T02:24:56;8.50;99.90
23100;DHT22;53791;50.696;4.396;2023-04-25T02:27:24;8.50;99.90
23100;DHT22;53791;50.696;4.396;2023-04-25T02:29:51;8.40;99.90
23100;DHT22;53791;50.696;4.396;2023-04-25T02:32:19;8.40;99.90
23100;DHT22;53791;50.696;4.396;2023-04-25T02:34:46;8.40;99.90
23100;DHT22;53791;50.696;4.396;2023-04-25T02:37:14;8.50;99.90
23100;DHT22;53791;50.696;4.396;2023-04-25T02:39:42;8.50;99.90
23100;DHT22;53791;50.696;4.396;2023-04-25T02:42:10;8.50;99.90
23100;DHT22;53791;50.696;4.396;2023-04-25T02:44:37;8.50;99.90
23100;DHT22;53791;50.696;4.396;2023-04-25T02:47:05;8.50;99.90
23100;DHT22;53791;50.696;4.396;2023-04-25T02:49:32;8.40;99.90
23100;DHT22;53791;50.696;4.396;2023-04-25T02:52:00;8.40;99.90
23100;DHT22;53791;50.696;4.396;2023-04-25T02:54:29;8.40;99.90
23100;DHT22;53791;50.696;4.396;2023-04-25T02:56:57;8.40;99.90
23100;DHT22;53791;50.696;4.396;2023-04-25T02:59:24;8.30;99.90
23100;DHT22;53791;50.696;4.396;2023-04-25T03:01:52;8.30;99.90
23100;DHT22;53791;50.696;4.396;2023-04-25T03:04:19;8.30;99.90
23100;DHT22;53791;50.696;4.396;2023-04-25T03:06:47;8.40;99.90
23100;DHT22;53791;50.696;4.396;2023-04-25T03:09:14;8.40;99.90
23100;DHT22;53791;50.696;4.396;2023-04-25T03:11:43;8.40;99.90
23100;DHT22;53791;50.696;4.396;2023-04-25T03:14:11;8.30;99.90
23100;DHT22;53791;50.696;4.396;2023-04-25T03:16:39;8.20;99.90
23100;DHT22;53791;50.696;4.396;2023-04-25T03:19:07;8.10;99.90
23100;DHT22;53791;50.696;4.396;2023-04-25T03:21:36;8.10;99.90
23100;DHT22;53791;50.696;4.396;2023-04-25T03:24:04;8.10;99.90
23100;DHT22;53791;50.696;4.396;2023-04-25T03:26:32;8.20;99.90
23100;DHT22;53791;50.696;4.396;2023-04-25T03:28:59;8.10;99.90
23100;DHT22;53791;50.696;4.396;2023-04-25T03:31:27;8.20;99.90
23100;DHT22;53791;50.696;4.396;2023-04-25T03:33:54;8.10;99.90
23100;DHT22;53791;50.696;4.396;2023-04-25T03:36:22;8.10;99.90
23100;DHT22;53791;50.696;4.396;2023-04-25T03:38:49;8.10;99.90
23100;DHT22;53791;50.696;4.396;2023-04-25T03:41:17;8.10;99.90
23100;DHT22;53791;50.696;4.396;2023-04-25T03:43:44;8.10;99.90
23100;DHT22;53791;50.696;4.396;2023-04-25T03:46:12;8.10;99.90
23100;DHT22;53791;50.696;4.396;2023-04-25T03:48:39;8.10;99.90
23100;DHT22;53791;50.696;4.396;2023-04-25T03:51:07;8.00;99.90
23100;DHT22;53791;50.696;4.396;2023-04-25T03:53:34;8.10;99.90
23100;DHT22;53791;50.696;4.396;2023-04-25T03:56:02;8.00;99.90
23100;DHT22;53791;50.696;4.396;2023-04-25T03:58:29;8.00;99.90
23100;DHT22;53791;50.696;4.396;2023-04-25T04:00:57;8.10;99.90
23100;DHT22;53791;50.696;4.396;2023-04-25T04:03:24;8.10;99.90
23100;DHT22;53791;50.696;4.396;2023-04-25T04:05:52;8.10;99.90
23100;DHT22;53791;50.696;4.396;2023-04-25T04:08:19;8.10;99.90
23100;DHT22;53791;50.696;4.396;2023-04-25T04:10:47;8.00;99.90
23100;DHT22;53791;50.696;4.396;2023-04-25T04:13:14;8.00;99.90
23100;DHT22;53791;50.696;4.396;2023-04-25T04:15:42;8.00;99.90
23100;DHT22;53791;50.696;4.396;2023-04-25T04:18:09;8.00;99.90
23100;DHT22;53791;50.696;4.396;2023-04-25T04:20:37;8.00;99.90
23100;DHT22;53791;50.696;4.396;2023-04-25T04:23:04;8.00;99.90
23100;DHT22;53791;50.696;4.396;2023-04-25T04:25:32;8.00;99.90
23100;DHT22;53791;50.696;4.396;2023-04-25T04:28:00;8.00;99.90
23100;DHT22;53791;50.696;4.396;2023-04-25T04:30:28;8.00;99.90
23100;DHT22;53791;50.696;4.396;2023-04-25T04:32:59;8.00;99.90
23100;DHT22;53791;50.696;4.396;2023-04-25T04:35:27;8.00;99.90
23100;DHT22;53791;50.696;4.396;2023-04-25T04:37:54;8.00;99.90
23100;DHT22;53791;50.696;4.396;2023-04-25T04:40:22;7.90;99.90
23100;DHT22;53791;50.696;4.396;2023-04-25T04:42:50;7.90;99.90
23100;DHT22;53791;50.696;4.396;2023-04-25T04:45:17;7.90;99.90
23100;DHT22;53791;50.696;4.396;2023-04-25T04:47:45;7.90;99.90
23100;DHT22;53791;50.696;4.396;2023-04-25T04:50:12;7.90;99.90
23100;DHT22;53791;50.696;4.396;2023-04-25T04:52:41;7.80;99.90
23100;DHT22;53791;50.696;4.396;2023-04-25T04:55:09;7.70;99.90
23100;DHT22;53791;50.696;4.396;2023-04-25T04:57:46;7.70;99.90
23100;DHT22;53791;50.696;4.396;2023-04-25T05:00:13;7.70;99.90
23100;DHT22;53791;50.696;4.396;2023-04-25T05:02:42;7.70;99.90
23100;DHT22;53791;50.696;4.396;2023-04-25T05:05:09;7.60;99.90
23100;DHT22;53791;50.696;4.396;2023-04-25T05:07:36;7.60;99.90
23100;DHT22;53791;50.696;4.396;2023-04-25T05:10:05;7.60;99.90
23100;DHT22;53791;50.696;4.396;2023-04-25T05:12:32;7.50;99.90
23100;DHT22;53791;50.696;4.396;2023-04-25T05:15:00;7.60;99.90
23100;DHT22;53791;50.696;4.396;2023-04-25T05:17:27;7.60;99.90
23100;DHT22;53791;50.696;4.396;2023-04-25T05:19:55;7.60;99.90
23100;DHT22;53791;50.696;4.396;2023-04-25T05:22:23;7.60;99.90
23100;DHT22;53791;50.696;4.396;2023-04-25T05:24:50;7.70;99.90
23100;DHT22;53791;50.696;4.396;2023-04-25T05:27:18;7.70;99.90
23100;DHT22;53791;50.696;4.396;2023-04-25T05:29:46;7.70;99.90
23100;DHT22;53791;50.696;4.396;2023-04-25T05:32:13;7.70;99.90
23100;DHT22;53791;50.696;4.396;2023-04-25T05:34:41;7.80;99.90
23100;DHT22;53791;50.696;4.396;2023-04-25T05:37:09;7.80;99.90
23100;DHT22;53791;50.696;4.396;2023-04-25T05:39:36;7.90;99.90
23100;DHT22;53791;50.696;4.396;2023-04-25T05:42:04;7.90;99.90
23100;DHT22;53791;50.696;4.396;2023-04-25T05:44:31;7.90;99.90
23100;DHT22;53791;50.696;4.396;2023-04-25T05:46:59;7.80;99.90
23100;DHT22;53791;50.696;4.396;2023-04-25T05:49:27;7.70;99.90
23100;DHT22;53791;50.696;4.396;2023-04-25T05:51:54;7.70;99.90
23100;DHT22;53791;50.696;4.396;2023-04-25T05:54:22;7.70;99.90
23100;DHT22;53791;50.696;4.396;2023-04-25T05:56:49;7.80;99.90
23100;DHT22;53791;50.696;4.396;2023-04-25T05:59:17;7.90;99.90
23100;DHT22;53791;50.696;4.396;2023-04-25T06:01:45;8.00;99.90
23100;DHT22;53791;50.696;4.396;2023-04-25T06:04:13;8.00;99.90
23100;DHT22;53791;50.696;4.396;2023-04-25T06:06:41;8.00;99.90
23100;DHT22;53791;50.696;4.396;2023-04-25T06:09:08;7.90;99.90
23100;DHT22;53791;50.696;4.396;2023-04-25T06:11:36;7.80;99.90
23100;DHT22;53791;50.696;4.396;2023-04-25T06:14:03;7.80;99.90
23100;DHT22;53791;50.696;4.396;2023-04-25T06:16:31;7.80;99.90
23100;DHT22;53791;50.696;4.396;2023-04-25T06:18:58;7.90;99.90
23100;DHT22;53791;50.696;4.396;2023-04-25T06:21:26;7.90;99.90
23100;DHT22;53791;50.696;4.396;2023-04-25T06:23:53;7.80;99.90
23100;DHT22;53791;50.696;4.396;2023-04-25T06:26:21;7.90;99.90
23100;DHT22;53791;50.696;4.396;2023-04-25T06:28:51;7.90;99.90
23100;DHT22;53791;50.696;4.396;2023-04-25T06:31:19;7.90;99.90
23100;DHT22;53791;50.696;4.396;2023-04-25T06:33:46;7.80;99.90
23100;DHT22;53791;50.696;4.396;2023-04-25T06:36:14;7.80;99.90
23100;DHT22;53791;50.696;4.396;2023-04-25T06:38:42;7.80;99.90
23100;DHT22;53791;50.696;4.396;2023-04-25T06:41:09;7.90;99.90
23100;DHT22;53791;50.696;4.396;2023-04-25T06:43:37;7.90;99.90
23100;DHT22;53791;50.696;4.396;2023-04-25T06:46:04;8.00;99.90
23100;DHT22;53791;50.696;4.396;2023-04-25T06:48:32;8.10;99.90
23100;DHT22;53791;50.696;4.396;2023-04-25T06:51:00;8.10;99.90
23100;DHT22;53791;50.696;4.396;2023-04-25T06:53:27;8.10;99.90
23100;DHT22;53791;50.696;4.396;2023-04-25T06:55:55;8.10;99.90
23100;DHT22;53791;50.696;4.396;2023-04-25T06:58:22;8.20;99.90
23100;DHT22;53791;50.696;4.396;2023-04-25T07:00:58;8.20;99.90
23100;DHT22;53791;50.696;4.396;2023-04-25T07:03:26;8.40;99.90
23100;DHT22;53791;50.696;4.396;2023-04-25T07:05:54;8.40;99.90
23100;DHT22;53791;50.696;4.396;2023-04-25T07:08:21;8.50;99.90
23100;DHT22;53791;50.696;4.396;2023-04-25T07:10:49;8.60;99.90
23100;DHT22;53791;50.696;4.396;2023-04-25T07:13:16;8.60;99.90
23100;DHT22;53791;50.696;4.396;2023-04-25T07:15:44;8.50;99.90
23100;DHT22;53791;50.696;4.396;2023-04-25T07:18:12;8.50;99.90
23100;DHT22;53791;50.696;4.396;2023-04-25T07:20:39;8.50;99.90
23100;DHT22;53791;50.696;4.396;2023-04-25T07:23:07;8.70;99.90
23100;DHT22;53791;50.696;4.396;2023-04-25T07:25:34;8.80;99.90
23100;DHT22;53791;50.696;4.396;2023-04-25T07:28:02;8.90;99.90
23100;DHT22;53791;50.696;4.396;2023-04-25T07:30:29;8.90;99.90
23100;DHT22;53791;50.696;4.396;2023-04-25T07:32:57;8.90;99.90
23100;DHT22;53791;50.696;4.396;2023-04-25T07:35:24;8.90;99.90
23100;DHT22;53791;50.696;4.396;2023-04-25T07:37:52;8.90;99.90
23100;DHT22;53791;50.696;4.396;2023-04-25T07:40:20;9.00;99.90
23100;DHT22;53791;50.696;4.396;2023-04-25T07:42:47;9.00;99.90
23100;DHT22;53791;50.696;4.396;2023-04-25T07:45:15;9.00;99.90
23100;DHT22;53791;50.696;4.396;2023-04-25T07:47:43;9.00;99.90
23100;DHT22;53791;50.696;4.396;2023-04-25T07:50:11;9.10;99.90
23100;DHT22;53791;50.696;4.396;2023-04-25T07:52:38;9.20;99.90
23100;DHT22;53791;50.696;4.396;2023-04-25T07:55:06;9.30;99.90
23100;DHT22;53791;50.696;4.396;2023-04-25T07:57:34;9.40;99.90
23100;DHT22;53791;50.696;4.396;2023-04-25T08:00:01;9.30;99.90
23100;DHT22;53791;50.696;4.396;2023-04-25T08:02:31;9.40;99.90
23100;DHT22;53791;50.696;4.396;2023-04-25T08:04:58;9.50;99.90
23100;DHT22;53791;50.696;4.396;2023-04-25T08:07:26;9.40;99.90
23100;DHT22;53791;50.696;4.396;2023-04-25T08:09:54;9.40;99.90
23100;DHT22;53791;50.696;4.396;2023-04-25T08:12:22;9.60;99.90
23100;DHT22;53791;50.696;4.396;2023-04-25T08:17:36;9.90;99.90
23100;DHT22;53791;50.696;4.396;2023-04-25T08:20:04;9.90;99.90
23100;DHT22;53791;50.696;4.396;2023-04-25T08:22:32;10.30;99.90
23100;DHT22;53791;50.696;4.396;2023-04-25T08:25:00;10.60;99.90
23100;DHT22;53791;50.696;4.396;2023-04-25T08:27:27;10.80;99.90
23100;DHT22;53791;50.696;4.396;2023-04-25T08:29:55;10.90;99.90
23100;DHT22;53791;50.696;4.396;2023-04-25T08:32:22;11.00;99.90
23100;DHT22;53791;50.696;4.396;2023-04-25T08:34:50;11.10;99.90
23100;DHT22;53791;50.696;4.396;2023-04-25T08:37:19;11.00;99.90
23100;DHT22;53791;50.696;4.396;2023-04-25T08:39:47;11.00;99.90
23100;DHT22;53791;50.696;4.396;2023-04-25T08:42:15;11.00;99.90
23100;DHT22;53791;50.696;4.396;2023-04-25T08:44:44;11.00;99.90
23100;DHT22;53791;50.696;4.396;2023-04-25T08:47:12;11.40;99.90
23100;DHT22;53791;50.696;4.396;2023-04-25T08:49:40;11.70;99.90
23100;DHT22;53791;50.696;4.396;2023-04-25T08:52:09;11.80;99.90
23100;DHT22;53791;50.696;4.396;2023-04-25T08:54:43;12.10;99.90
23100;DHT22;53791;50.696;4.396;2023-04-25T08:57:10;12.60;99.90
23100;DHT22;53791;50.696;4.396;2023-04-25T08:59:39;13.30;99.90
23100;DHT22;53791;50.696;4.396;2023-04-25T09:02:09;14.10;99.90
23100;DHT22;53791;50.696;4.396;2023-04-25T09:04:42;14.80;99.90
23100;DHT22;53791;50.696;4.396;2023-04-25T09:07:10;15.20;99.90
23100;DHT22;53791;50.696;4.396;2023-04-25T09:09:37;15.60;99.90
23100;DHT22;53791;50.696;4.396;2023-04-25T09:12:05;15.30;99.90
23100;DHT22;53791;50.696;4.396;2023-04-25T09:14:34;15.50;99.90
23100;DHT22;53791;50.696;4.396;2023-04-25T09:17:04;15.70;99.90
23100;DHT22;53791;50.696;4.396;2023-04-25T09:19:37;16.50;99.90
23100;DHT22;53791;50.696;4.396;2023-04-25T09:22:08;17.40;99.90
23100;DHT22;53791;50.696;4.396;2023-04-25T09:24:40;18.10;99.90
23100;DHT22;53791;50.696;4.396;2023-04-25T09:27:11;18.60;99.90
23100;DHT22;53791;50.696;4.396;2023-04-25T09:29:40;19.30;99.90
23100;DHT22;53791;50.696;4.396;2023-04-25T09:32:23;19.90;99.90
23100;DHT22;53791;50.696;4.396;2023-04-25T09:34:49;20.30;99.90
23100;DHT22;53791;50.696;4.396;2023-04-25T09:37:23;20.40;99.90
23100;DHT22;53791;50.696;4.396;2023-04-25T09:39:55;20.60;99.90
23100;DHT22;53791;50.696;4.396;2023-04-25T09:42:23;20.00;99.90
23100;DHT22;53791;50.696;4.396;2023-04-25T09:44:53;19.20;99.90
23100;DHT22;53791;50.696;4.396;2023-04-25T09:47:22;18.30;99.90
23100;DHT22;53791;50.696;4.396;2023-04-25T09:49:50;17.60;99.90
23100;DHT22;53791;50.696;4.396;2023-04-25T09:52:20;16.80;99.90
23100;DHT22;53791;50.696;4.396;2023-04-25T09:54:49;16.30;99.90
23100;DHT22;53791;50.696;4.396;2023-04-25T09:57:22;15.90;99.90
23100;DHT22;53791;50.696;4.396;2023-04-25T09:59:52;15.80;99.90
23100;DHT22;53791;50.696;4.396;2023-04-25T10:02:22;15.40;99.90
23100;DHT22;53791;50.696;4.396;2023-04-25T10:04:52;15.10;99.90
23100;DHT22;53791;50.696;4.396;2023-04-25T10:07:26;14.60;99.90
23100;DHT22;53791;50.696;4.396;2023-04-25T10:09:59;14.30;99.90
23100;DHT22;53791;50.696;4.396;2023-04-25T10:12:29;14.00;99.90
23100;DHT22;53791;50.696;4.396;2023-04-25T10:15:01;13.60;99.90
23100;DHT22;53791;50.696;4.396;2023-04-25T10:17:39;13.50;99.90
23100;DHT22;53791;50.696;4.396;2023-04-25T10:20:07;13.20;99.90
23100;DHT22;53791;50.696;4.396;2023-04-25T10:22:39;13.20;99.90
23100;DHT22;53791;50.696;4.396;2023-04-25T10:25:07;13.40;99.90
23100;DHT22;53791;50.696;4.396;2023-04-25T10:27:36;14.20;99.90
23100;DHT22;53791;50.696;4.396;2023-04-25T10:30:16;15.30;99.90
23100;DHT22;53791;50.696;4.396;2023-04-25T10:32:45;16.70;99.90
23100;DHT22;53791;50.696;4.396;2023-04-25T10:35:29;17.70;99.90
23100;DHT22;53791;50.696;4.396;2023-04-25T10:37:59;18.80;99.90
23100;DHT22;53791;50.696;4.396;2023-04-25T10:40:27;19.80;99.90
23100;DHT22;53791;50.696;4.396;2023-04-25T10:42:55;20.50;99.90
23100;DHT22;53791;50.696;4.396;2023-04-25T10:45:23;20.90;99.90
23100;DHT22;53791;50.696;4.396;2023-04-25T10:47:50;21.50;99.90
23100;DHT22;53791;50.696;4.396;2023-04-25T10:50:19;22.10;99.90
23100;DHT22;53791;50.696;4.396;2023-04-25T10:52:47;21.90;99.90
23100;DHT22;53791;50.696;4.396;2023-04-25T10:55:14;22.40;99.90
23100;DHT22;53791;50.696;4.396;2023-04-25T10:57:44;22.80;99.90
23100;DHT22;53791;50.696;4.396;2023-04-25T11:00:15;22.90;99.90
23100;DHT22;53791;50.696;4.396;2023-04-25T11:02:48;22.70;99.90
23100;DHT22;53791;50.696;4.396;2023-04-25T11:05:22;23.40;99.90
23100;DHT22;53791;50.696;4.396;2023-04-25T11:07:54;23.00;99.90
23100;DHT22;53791;50.696;4.396;2023-04-25T11:10:31;21.60;99.90
23100;DHT22;53791;50.696;4.396;2023-04-25T11:13:01;20.50;99.90
23100;DHT22;53791;50.696;4.396;2023-04-25T11:15:29;19.30;99.90
23100;DHT22;53791;50.696;4.396;2023-04-25T11:17:56;18.50;99.90
23100;DHT22;53791;50.696;4.396;2023-04-25T11:20:26;17.70;99.90
23100;DHT22;53791;50.696;4.396;2023-04-25T11:22:59;17.00;99.90
23100;DHT22;53791;50.696;4.396;2023-04-25T11:25:35;16.20;99.90
23100;DHT22;53791;50.696;4.396;2023-04-25T11:28:04;15.60;99.90
23100;DHT22;53791;50.696;4.396;2023-04-25T11:30:31;15.20;99.90
23100;DHT22;53791;50.696;4.396;2023-04-25T11:33:01;14.60;99.90
23100;DHT22;53791;50.696;4.396;2023-04-25T11:35:29;14.30;99.90
23100;DHT22;53791;50.696;4.396;2023-04-25T11:37:58;14.00;99.90
23100;DHT22;53791;50.696;4.396;2023-04-25T11:40:27;13.70;99.90
23100;DHT22;53791;50.696;4.396;2023-04-25T11:42:54;13.50;99.90
23100;DHT22;53791;50.696;4.396;2023-04-25T11:45:23;13.30;99.90
23100;DHT22;53791;50.696;4.396;2023-04-25T11:47:52;13.10;99.90
23100;DHT22;53791;50.696;4.396;2023-04-25T11:50:19;12.80;99.90
23100;DHT22;53791;50.696;4.396;2023-04-25T11:52:49;12.60;99.90
23100;DHT22;53791;50.696;4.396;2023-04-25T11:55:18;12.50;99.90
23100;DHT22;53791;50.696;4.396;2023-04-25T11:57:48;12.50;99.90
23100;DHT22;53791;50.696;4.396;2023-04-25T12:00:19;12.50;99.90
23100;DHT22;53791;50.696;4.396;2023-04-25T12:02:55;12.70;99.90
23100;DHT22;53791;50.696;4.396;2023-04-25T12:05:26;12.70;99.90
23100;DHT22;53791;50.696;4.396;2023-04-25T12:07:54;12.90;99.90
23100;DHT22;53791;50.696;4.396;2023-04-25T12:10:22;13.20;99.90
23100;DHT22;53791;50.696;4.396;2023-04-25T12:12:54;13.40;99.90
23100;DHT22;53791;50.696;4.396;2023-04-25T12:15:24;14.10;99.90
23100;DHT22;53791;50.696;4.396;2023-04-25T12:17:54;15.20;99.90
23100;DHT22;53791;50.696;4.396;2023-04-25T12:20:24;16.30;99.90
23100;DHT22;53791;50.696;4.396;2023-04-25T12:22:53;16.90;99.90
23100;DHT22;53791;50.696;4.396;2023-04-25T12:25:57;17.00;99.90
23100;DHT22;53791;50.696;4.396;2023-04-25T12:28:24;17.20;99.90
23100;DHT22;53791;50.696;4.396;2023-04-25T12:31:07;17.10;99.90
23100;DHT22;53791;50.696;4.396;2023-04-25T12:33:36;17.00;99.90
23100;DHT22;53791;50.696;4.396;2023-04-25T12:36:06;16.90;99.90
23100;DHT22;53791;50.696;4.396;2023-04-25T12:38:39;17.10;99.90
23100;DHT22;53791;50.696;4.396;2023-04-25T12:41:08;17.60;99.90
23100;DHT22;53791;50.696;4.396;2023-04-25T12:43:35;18.60;99.90
23100;DHT22;53791;50.696;4.396;2023-04-25T12:46:03;19.50;99.90
23100;DHT22;53791;50.696;4.396;2023-04-25T12:48:30;20.40;99.90
23100;DHT22;53791;50.696;4.396;2023-04-25T12:50:58;20.40;99.90
23100;DHT22;53791;50.696;4.396;2023-04-25T12:53:27;19.50;99.90
23100;DHT22;53791;50.696;4.396;2023-04-25T12:55:56;19.40;99.90
23100;DHT22;53791;50.696;4.396;2023-04-25T13:00:55;19.10;99.90
23100;DHT22;53791;50.696;4.396;2023-04-25T13:03:22;18.80;99.90
23100;DHT22;53791;50.696;4.396;2023-04-25T13:05:50;18.40;99.90
23100;DHT22;53791;50.696;4.396;2023-04-25T13:08:19;18.60;99.90
23100;DHT22;53791;50.696;4.396;2023-04-25T13:10:48;18.70;99.90
23100;DHT22;53791;50.696;4.396;2023-04-25T13:13:17;18.70;99.90
23100;DHT22;53791;50.696;4.396;2023-04-25T13:15:46;18.60;99.90
23100;DHT22;53791;50.696;4.396;2023-04-25T13:18:15;18.50;99.90
23100;DHT22;53791;50.696;4.396;2023-04-25T13:20:44;18.70;99.90
23100;DHT22;53791;50.696;4.396;2023-04-25T13:23:13;18.80;99.90
23100;DHT22;53791;50.696;4.396;2023-04-25T13:25:41;18.90;99.90
23100;DHT22;53791;50.696;4.396;2023-04-25T13:28:08;18.90;99.90
23100;DHT22;53791;50.696;4.396;2023-04-25T13:30:37;19.40;99.90
23100;DHT22;53791;50.696;4.396;2023-04-25T13:33:05;20.00;99.90
23100;DHT22;53791;50.696;4.396;2023-04-25T13:35:34;20.70;99.90
23100;DHT22;53791;50.696;4.396;2023-04-25T13:38:02;20.70;99.90
23100;DHT22;53791;50.696;4.396;2023-04-25T13:40:30;20.30;99.90
23100;DHT22;53791;50.696;4.396;2023-04-25T13:42:59;19.70;99.90
23100;DHT22;53791;50.696;4.396;2023-04-25T13:45:26;18.90;99.90
23100;DHT22;53791;50.696;4.396;2023-04-25T13:47:54;18.30;99.90
23100;DHT22;53791;50.696;4.396;2023-04-25T13:50:21;17.90;99.90
23100;DHT22;53791;50.696;4.396;2023-04-25T13:52:49;17.50;99.90
23100;DHT22;53791;50.696;4.396;2023-04-25T13:55:16;17.40;99.90
23100;DHT22;53791;50.696;4.396;2023-04-25T13:57:46;17.20;99.90
23100;DHT22;53791;50.696;4.396;2023-04-25T14:00:17;16.90;99.90
23100;DHT22;53791;50.696;4.396;2023-04-25T14:02:42;16.90;99.90
23100;DHT22;53791;50.696;4.396;2023-04-25T14:05:10;16.90;99.90
23100;DHT22;53791;50.696;4.396;2023-04-25T14:07:38;16.90;99.90
23100;DHT22;53791;50.696;4.396;2023-04-25T14:10:06;16.60;99.90
23100;DHT22;53791;50.696;4.396;2023-04-25T14:12:34;16.60;99.90
23100;DHT22;53791;50.696;4.396;2023-04-25T14:15:01;16.40;99.90
23100;DHT22;53791;50.696;4.396;2023-04-25T14:17:31;16.50;99.90
23100;DHT22;53791;50.696;4.396;2023-04-25T14:19:59;16.60;99.90
23100;DHT22;53791;50.696;4.396;2023-04-25T14:22:26;16.70;99.90
23100;DHT22;53791;50.696;4.396;2023-04-25T14:24:54;16.80;99.90
23100;DHT22;53791;50.696;4.396;2023-04-25T14:27:21;16.90;99.90
23100;DHT22;53791;50.696;4.396;2023-04-25T14:29:49;17.50;99.90
23100;DHT22;53791;50.696;4.396;2023-04-25T14:32:16;17.40;99.90
23100;DHT22;53791;50.696;4.396;2023-04-25T14:34:44;17.50;99.90
23100;DHT22;53791;50.696;4.396;2023-04-25T14:37:12;17.90;99.90
23100;DHT22;53791;50.696;4.396;2023-04-25T14:39:39;18.40;99.90
23100;DHT22;53791;50.696;4.396;2023-04-25T14:42:07;18.70;99.90
23100;DHT22;53791;50.696;4.396;2023-04-25T14:44:38;18.10;99.90
23100;DHT22;53791;50.696;4.396;2023-04-25T14:47:06;17.50;99.90
23100;DHT22;53791;50.696;4.396;2023-04-25T14:49:33;17.10;99.90
23100;DHT22;53791;50.696;4.396;2023-04-25T14:52:01;16.60;99.90
23100;DHT22;53791;50.696;4.396;2023-04-25T14:54:29;16.30;99.90
23100;DHT22;53791;50.696;4.396;2023-04-25T14:56:57;16.10;99.90
23100;DHT22;53791;50.696;4.396;2023-04-25T14:59:24;15.80;99.90
23100;DHT22;53791;50.696;4.396;2023-04-25T15:01:59;15.60;99.90
23100;DHT22;53791;50.696;4.396;2023-04-25T15:04:26;15.30;99.90
23100;DHT22;53791;50.696;4.396;2023-04-25T15:06:57;15.20;99.90
23100;DHT22;53791;50.696;4.396;2023-04-25T15:09:25;15.40;99.90
23100;DHT22;53791;50.696;4.396;2023-04-25T15:11:52;15.70;99.90
23100;DHT22;53791;50.696;4.396;2023-04-25T15:14:27;15.80;99.90
23100;DHT22;53791;50.696;4.396;2023-04-25T15:16:49;16.00;99.90
23100;DHT22;53791;50.696;4.396;2023-04-25T15:19:23;16.50;99.90
23100;DHT22;53791;50.696;4.396;2023-04-25T15:21:50;16.90;99.90
23100;DHT22;53791;50.696;4.396;2023-04-25T15:24:18;17.30;99.90
23100;DHT22;53791;50.696;4.396;2023-04-25T15:26:46;17.80;99.90
23100;DHT22;53791;50.696;4.396;2023-04-25T15:29:15;17.70;99.90
23100;DHT22;53791;50.696;4.396;2023-04-25T15:31:42;17.90;99.90
23100;DHT22;53791;50.696;4.396;2023-04-25T15:34:10;18.10;99.90
23100;DHT22;53791;50.696;4.396;2023-04-25T15:36:45;17.80;99.90
23100;DHT22;53791;50.696;4.396;2023-04-25T15:39:14;17.70;99.90
23100;DHT22;53791;50.696;4.396;2023-04-25T15:41:42;17.30;99.90
23100;DHT22;53791;50.696;4.396;2023-04-25T15:44:09;16.90;99.90
23100;DHT22;53791;50.696;4.396;2023-04-25T15:46:38;16.50;99.90
23100;DHT22;53791;50.696;4.396;2023-04-25T15:49:06;16.00;99.90
23100;DHT22;53791;50.696;4.396;2023-04-25T15:51:34;15.70;99.90
23100;DHT22;53791;50.696;4.396;2023-04-25T15:54:02;15.40;99.90